createdAt,value
2018-05-11T00:00:17.333Z,19.40
2018-05-11T00:02:44.783Z,19.50
2018-05-11T00:05:11.415Z,19.50
2018-05-11T00:07:38.439Z,19.40
2018-05-11T00:10:05.140Z,19.40
2018-05-11T00:12:31.812Z,19.50
2018-05-11T00:14:58.572Z,19.40
2018-05-11T00:17:25.984Z,19.40
2018-05-11T00:19:53.455Z,19.40
2018-05-11T00:22:20.080Z,19.40
2018-05-11T00:24:47.153Z,19.40
2018-05-11T00:27:14.201Z,19.40
2018-05-11T00:29:40.854Z,19.40
2018-05-11T00:32:07.496Z,19.40
2018-05-11T00:34:34.180Z,19.40
2018-05-11T00:37:01.248Z,19.40
2018-05-11T00:39:28.443Z,19.40
2018-05-11T00:41:55.067Z,19.40
2018-05-11T00:44:22.488Z,19.40
2018-05-11T00:46:49.118Z,19.40
2018-05-11T00:49:15.832Z,19.40
2018-05-11T00:51:42.466Z,19.40
2018-05-11T00:54:09.096Z,19.40
2018-05-11T00:56:36.118Z,19.40
2018-05-11T00:59:02.752Z,19.40
2018-05-11T01:01:29.796Z,19.40
2018-05-11T01:03:56.442Z,19.40
2018-05-11T01:06:23.151Z,19.40
2018-05-11T01:08:49.862Z,19.30
2018-05-11T01:11:16.960Z,19.30
2018-05-11T01:13:44.365Z,19.30
2018-05-11T01:16:11.432Z,19.30
2018-05-11T01:18:38.864Z,19.30
2018-05-11T01:21:05.984Z,19.30
2018-05-11T01:23:32.604Z,19.30
2018-05-11T01:26:00.024Z,19.30
2018-05-11T01:28:27.516Z,19.30
2018-05-11T01:30:54.152Z,19.30
2018-05-11T01:33:21.551Z,19.30
2018-05-11T01:35:48.213Z,19.30
2018-05-11T01:38:15.295Z,19.30
2018-05-11T01:40:42.308Z,19.30
2018-05-11T01:43:09.760Z,19.30
2018-05-11T01:45:37.080Z,19.30
2018-05-11T01:48:03.740Z,19.30
2018-05-11T01:50:31.127Z,19.30
2018-05-11T01:52:57.763Z,19.30
2018-05-11T01:55:24.780Z,19.30
2018-05-11T01:57:51.425Z,19.30
2018-05-11T02:00:18.051Z,19.30
2018-05-11T02:02:44.708Z,19.30
2018-05-11T02:05:11.731Z,19.30
2018-05-11T02:07:39.242Z,19.30
2018-05-11T02:10:05.864Z,19.30
2018-05-11T02:12:32.909Z,19.30
2018-05-11T02:14:59.584Z,19.30
2018-05-11T02:17:26.823Z,19.30
2018-05-11T02:19:53.436Z,19.30
2018-05-11T02:22:20.060Z,19.30
2018-05-11T02:24:47.095Z,19.20
2018-05-11T02:27:13.740Z,19.20
2018-05-11T02:29:41.191Z,19.20
2018-05-11T02:32:07.812Z,19.20
2018-05-11T02:34:34.464Z,19.20
2018-05-11T02:37:01.900Z,19.20
2018-05-11T02:39:28.960Z,19.20
2018-05-11T02:41:55.589Z,19.20
2018-05-11T02:44:22.237Z,19.20
2018-05-11T02:46:49.264Z,19.20
2018-05-11T02:49:15.912Z,19.20
2018-05-11T02:51:42.537Z,19.20
2018-05-11T02:54:09.609Z,19.20
2018-05-11T02:56:37.040Z,19.20
2018-05-11T02:59:03.681Z,19.20
2018-05-11T03:01:30.336Z,19.20
2018-05-11T03:03:56.970Z,19.20
2018-05-11T03:06:23.618Z,19.20
2018-05-11T03:08:50.244Z,19.20
2018-05-11T03:11:16.884Z,19.20
2018-05-11T03:13:43.507Z,19.20
2018-05-11T03:16:10.979Z,19.20
2018-05-11T03:18:37.974Z,19.10
2018-05-11T03:21:04.960Z,19.20
2018-05-11T03:23:31.689Z,19.10
2018-05-11T03:25:58.344Z,19.10
2018-05-11T03:28:24.965Z,19.10
2018-05-11T03:30:52.439Z,19.10
2018-05-11T03:33:19.060Z,19.10
2018-05-11T03:35:45.697Z,19.10
2018-05-11T03:38:12.349Z,19.10
2018-05-11T03:40:39.376Z,19.10
2018-05-11T03:43:06.029Z,19.10
2018-05-11T03:45:32.672Z,19.10
2018-05-11T03:47:59.717Z,19.10
2018-05-11T03:50:26.742Z,19.10
2018-05-11T03:52:53.388Z,19.10
2018-05-11T03:55:20.832Z,19.10
2018-05-11T03:57:47.496Z,19.10
2018-05-11T04:00:14.524Z,19.10
2018-05-11T04:02:41.992Z,19.10
2018-05-11T04:05:09.906Z,19.10
2018-05-11T04:07:36.936Z,19.10
2018-05-11T04:10:03.956Z,19.00
2018-05-11T04:12:30.593Z,19.10
2018-05-11T04:14:58.021Z,19.10
2018-05-11T04:17:25.532Z,19.10
2018-05-11T04:19:52.155Z,19.10
2018-05-11T04:22:18.808Z,19.10
2018-05-11T04:24:45.825Z,19.10
2018-05-11T04:27:12.454Z,19.10
2018-05-11T04:29:39.096Z,19.10
2018-05-11T04:32:05.717Z,19.00
2018-05-11T04:34:32.368Z,19.00
2018-05-11T04:36:59.396Z,19.00
2018-05-11T04:39:26.100Z,19.00
2018-05-11T04:41:53.493Z,19.00
2018-05-11T04:44:20.145Z,19.00
2018-05-11T04:46:50.872Z,19.00
2018-05-11T04:49:17.516Z,19.00
2018-05-11T04:51:44.950Z,19.00
2018-05-11T04:54:11.599Z,19.00
2018-05-11T04:56:50.532Z,19.00
2018-05-11T04:59:17.585Z,19.00
2018-05-11T05:01:44.609Z,19.00
2018-05-11T05:04:11.668Z,19.00
2018-05-11T05:06:38.915Z,19.00
2018-05-11T05:09:05.968Z,19.00
2018-05-11T05:11:33.406Z,19.00
2018-05-11T05:14:00.488Z,19.00
2018-05-11T05:16:27.510Z,19.00
2018-05-11T05:18:54.960Z,19.00
2018-05-11T05:21:22.053Z,19.00
2018-05-11T05:23:49.105Z,19.00
2018-05-11T05:26:15.740Z,19.00
2018-05-11T05:28:42.417Z,19.00
2018-05-11T05:31:09.455Z,19.00
2018-05-11T05:33:36.844Z,19.00
2018-05-11T05:36:03.892Z,19.00
2018-05-11T05:38:31.385Z,19.00
2018-05-11T05:40:58.019Z,19.00
2018-05-11T05:43:24.644Z,19.00
2018-05-11T05:45:51.686Z,19.10
2018-05-11T05:48:18.402Z,19.10
2018-05-11T05:50:45.827Z,19.10
2018-05-11T05:53:12.456Z,19.10
2018-05-11T05:55:39.505Z,19.10
2018-05-11T05:58:06.129Z,19.10
2018-05-11T06:00:32.829Z,19.10
2018-05-11T06:02:59.544Z,19.10
2018-05-11T06:05:26.200Z,19.10
2018-05-11T06:07:52.836Z,19.10
2018-05-11T06:10:19.484Z,19.10
2018-05-11T06:12:46.500Z,19.10
2018-05-11T06:15:13.618Z,19.10
2018-05-11T06:17:40.768Z,19.10
2018-05-11T06:20:07.736Z,19.10
2018-05-11T06:22:34.364Z,19.10
2018-05-11T06:25:01.373Z,19.00
2018-05-11T06:27:28.795Z,19.10
2018-05-11T06:29:55.824Z,19.10
2018-05-11T06:32:23.752Z,19.10
2018-05-11T06:34:50.780Z,19.00
2018-05-11T06:37:17.828Z,19.10
2018-05-11T06:39:46.336Z,19.10
2018-05-11T06:45:02.447Z,19.10
2018-05-11T06:47:29.085Z,19.10
2018-05-11T06:49:56.098Z,19.10
2018-05-11T06:52:23.889Z,19.10
2018-05-11T06:57:24.145Z,19.10
2018-05-11T06:59:51.520Z,19.00
2018-05-11T07:02:18.545Z,19.10
2018-05-11T07:04:45.162Z,19.00
2018-05-11T07:07:12.597Z,19.10
2018-05-11T07:09:39.668Z,19.10
2018-05-11T07:12:06.317Z,19.10
2018-05-11T07:14:33.700Z,19.10
2018-05-11T07:17:00.719Z,19.10
2018-05-11T07:19:28.191Z,19.10
2018-05-11T07:21:54.819Z,19.10
2018-05-11T07:24:21.465Z,19.10
2018-05-11T07:26:48.074Z,19.10
2018-05-11T07:29:15.117Z,19.10
2018-05-11T07:31:42.513Z,19.10
2018-05-11T07:34:09.183Z,19.10
2018-05-11T07:36:36.616Z,19.10
2018-05-11T07:39:03.247Z,19.10
2018-05-11T07:41:29.864Z,19.10
2018-05-11T07:43:56.889Z,19.10
2018-05-11T07:46:23.508Z,19.10
2018-05-11T07:48:50.540Z,19.00
2018-05-11T07:51:17.159Z,19.10
2018-05-11T07:53:44.202Z,19.00
2018-05-11T07:56:10.821Z,19.10
2018-05-11T07:58:37.504Z,19.10
2018-05-11T08:01:04.120Z,19.00
2018-05-11T08:05:59.034Z,19.00
2018-05-11T08:08:26.050Z,19.10
2018-05-11T08:10:53.444Z,19.10
2018-05-11T08:13:20.457Z,19.10
2018-05-11T08:15:47.139Z,19.10
2018-05-11T08:18:13.830Z,19.10
2018-05-11T08:20:40.410Z,19.10
2018-05-11T08:23:07.030Z,19.10
2018-05-11T08:25:34.057Z,19.10
2018-05-11T08:28:03.493Z,19.10
2018-05-11T08:30:30.892Z,19.10
2018-05-11T08:32:58.277Z,19.10
2018-05-11T08:35:24.911Z,19.10
2018-05-11T08:37:52.296Z,19.10
2018-05-11T08:40:19.315Z,19.10
2018-05-11T08:42:46.338Z,19.10
2018-05-11T08:45:12.972Z,19.10
2018-05-11T08:47:40.450Z,19.10
2018-05-11T08:52:47.124Z,19.10
2018-05-11T08:55:13.768Z,19.10
2018-05-11T08:57:40.771Z,19.10
2018-05-11T09:00:07.388Z,19.10
2018-05-11T09:02:34.024Z,19.10
2018-05-11T09:05:00.713Z,19.10
2018-05-11T09:07:28.134Z,19.10
2018-05-11T09:09:54.745Z,19.10
2018-05-11T09:12:21.775Z,19.10
2018-05-11T09:14:48.796Z,19.10
2018-05-11T09:17:15.875Z,19.10
2018-05-11T09:19:42.496Z,19.10
2018-05-11T09:22:09.570Z,19.10
2018-05-11T09:24:36.172Z,19.10
2018-05-11T09:27:02.813Z,19.20
2018-05-11T09:29:29.505Z,19.10
2018-05-11T09:31:56.169Z,19.10
2018-05-11T09:34:22.780Z,19.10
2018-05-11T09:36:49.418Z,19.10
2018-05-11T09:39:16.030Z,19.20
2018-05-11T09:41:42.655Z,19.20
2018-05-11T09:44:10.056Z,19.20
2018-05-11T09:46:37.445Z,19.20
2018-05-11T09:49:04.470Z,19.20
2018-05-11T09:51:31.089Z,19.20
2018-05-11T09:53:57.783Z,19.20
2018-05-11T09:56:24.468Z,19.20
2018-05-11T09:58:51.555Z,19.20
2018-05-11T10:01:18.183Z,19.20
2018-05-11T10:03:44.818Z,19.20
2018-05-11T10:06:11.440Z,19.20
2018-05-11T10:08:38.072Z,19.20
2018-05-11T10:11:05.087Z,19.20
2018-05-11T10:13:32.121Z,19.30
2018-05-11T10:16:00.726Z,19.30
2018-05-11T10:18:27.760Z,19.30
2018-05-11T10:20:55.166Z,19.30
2018-05-11T10:23:22.236Z,19.30
2018-05-11T10:25:48.958Z,19.30
2018-05-11T10:28:15.993Z,19.30
2018-05-11T10:30:43.403Z,19.30
2018-05-11T10:33:10.488Z,19.30
2018-05-11T10:38:15.957Z,19.30
2018-05-11T10:40:42.983Z,19.30
2018-05-11T10:43:10.068Z,19.30
2018-05-11T10:45:36.705Z,19.30
2018-05-11T10:48:04.167Z,19.30
2018-05-11T10:50:31.048Z,19.30
2018-05-11T10:52:57.727Z,19.30
2018-05-11T10:55:24.996Z,19.30
2018-05-11T10:57:52.075Z,19.40
2018-05-11T11:00:18.707Z,19.40
2018-05-11T11:02:45.900Z,19.40
2018-05-11T11:05:12.531Z,19.40
2018-05-11T11:07:39.552Z,19.40
2018-05-11T11:15:10.486Z,19.40
2018-05-11T11:20:16.730Z,19.40
2018-05-11T11:22:44.185Z,19.40
2018-05-11T11:25:10.780Z,19.40
2018-05-11T11:27:37.422Z,19.40
2018-05-11T11:30:04.037Z,19.40
2018-05-11T11:32:30.697Z,19.40
2018-05-11T11:34:57.714Z,19.40
2018-05-11T11:37:24.348Z,19.40
2018-05-11T11:39:51.008Z,19.40
2018-05-11T11:44:45.937Z,19.40
2018-05-11T11:47:12.566Z,19.40
2018-05-11T11:49:39.954Z,19.40
2018-05-11T11:52:06.595Z,19.40
2018-05-11T11:54:33.981Z,19.40
2018-05-11T11:57:00.613Z,19.40
2018-05-11T11:59:28.018Z,19.40
2018-05-11T12:01:54.643Z,19.40
2018-05-11T12:04:22.061Z,19.40
2018-05-11T12:06:49.448Z,19.40
2018-05-11T12:09:16.844Z,19.40
2018-05-11T12:11:43.471Z,19.40
2018-05-11T12:14:10.514Z,19.40
2018-05-11T12:16:37.163Z,19.40
2018-05-11T12:19:03.800Z,19.40
2018-05-11T12:21:30.416Z,19.40
2018-05-11T12:23:57.819Z,19.50
2018-05-11T12:26:24.897Z,19.50
2018-05-11T12:28:52.301Z,19.50
2018-05-11T12:31:18.926Z,19.50
2018-05-11T12:33:45.950Z,19.50
2018-05-11T12:36:27.213Z,19.50
2018-05-11T12:38:53.863Z,19.50
2018-05-11T12:41:20.527Z,19.50
2018-05-11T12:43:47.536Z,19.50
2018-05-11T12:46:14.570Z,19.50
2018-05-11T12:48:41.193Z,19.50
2018-05-11T12:53:37.315Z,19.50
2018-05-11T12:56:03.956Z,19.50
2018-05-11T12:58:30.974Z,19.50
2018-05-11T13:03:37.061Z,19.50
2018-05-11T13:06:04.096Z,19.50
2018-05-11T13:08:30.723Z,19.50
2018-05-11T13:10:57.760Z,19.50
2018-05-11T13:13:24.380Z,19.50
2018-05-11T13:15:51.395Z,19.50
2018-05-11T13:18:18.037Z,19.50
2018-05-11T13:20:45.119Z,19.50
2018-05-11T13:23:12.100Z,19.50
2018-05-11T13:25:38.719Z,19.50
2018-05-11T13:28:05.356Z,19.50
2018-05-11T13:30:32.395Z,19.50
2018-05-11T13:32:59.037Z,19.50
2018-05-11T13:35:26.434Z,19.50
2018-05-11T13:37:55.611Z,19.50
2018-05-11T13:40:22.645Z,19.50
2018-05-11T13:42:49.282Z,19.50
2018-05-11T13:45:15.906Z,19.50
2018-05-11T13:47:42.932Z,19.50
2018-05-11T13:50:09.603Z,19.50
2018-05-11T13:52:36.266Z,19.50
2018-05-11T13:55:03.277Z,19.60
2018-05-11T13:57:29.922Z,19.60
2018-05-11T13:59:56.544Z,19.60
2018-05-11T14:02:23.925Z,19.60
2018-05-11T14:04:50.967Z,19.60
2018-05-11T14:07:17.644Z,19.60
2018-05-11T14:09:44.678Z,19.60
2018-05-11T14:12:11.325Z,19.60
2018-05-11T14:19:47.330Z,19.60
2018-05-11T14:22:14.351Z,19.60
2018-05-11T14:24:40.978Z,19.60
2018-05-11T14:27:07.992Z,19.60
2018-05-11T14:29:35.015Z,19.60
2018-05-11T14:32:02.134Z,19.60
2018-05-11T14:34:28.686Z,19.60
2018-05-11T14:36:55.705Z,19.60
2018-05-11T14:39:22.835Z,19.60
2018-05-11T14:41:50.141Z,19.60
2018-05-11T14:44:18.605Z,19.60
2018-05-11T14:46:45.996Z,19.60
2018-05-11T14:49:13.098Z,19.60
2018-05-11T14:51:40.130Z,19.60
2018-05-11T14:54:07.513Z,19.60
2018-05-11T14:56:34.179Z,19.60
2018-05-11T14:59:00.801Z,19.60
2018-05-11T15:01:27.838Z,19.60
2018-05-11T15:03:54.454Z,19.60
2018-05-11T15:06:21.848Z,19.60
2018-05-11T15:08:48.866Z,19.70
2018-05-11T15:11:16.263Z,19.70
2018-05-11T15:13:42.879Z,19.70
2018-05-11T15:16:10.291Z,19.70
2018-05-11T15:18:37.674Z,19.70
2018-05-11T15:21:04.775Z,19.70
2018-05-11T15:23:32.164Z,19.70
2018-05-11T15:25:59.160Z,19.70
2018-05-11T15:28:25.895Z,19.70
2018-05-11T15:30:53.216Z,19.80
2018-05-11T15:33:20.254Z,19.70
2018-05-11T15:35:47.272Z,19.70
2018-05-11T15:38:13.913Z,19.70
2018-05-11T15:40:40.532Z,19.80
2018-05-11T15:45:35.841Z,19.80
2018-05-11T15:48:02.467Z,19.80
2018-05-11T15:50:29.076Z,19.80
2018-05-11T15:52:55.761Z,19.80
2018-05-11T15:55:22.383Z,19.80
2018-05-11T15:57:49.014Z,19.80
2018-05-11T16:00:16.031Z,19.80
2018-05-11T16:02:43.069Z,19.80
2018-05-11T16:05:09.706Z,19.80
2018-05-11T16:07:36.727Z,19.80
2018-05-11T16:10:03.763Z,19.80
2018-05-11T16:12:31.165Z,19.80
2018-05-11T16:14:57.740Z,19.80
2018-05-11T16:17:25.511Z,19.80
2018-05-11T16:19:52.154Z,19.80
2018-05-11T16:22:19.170Z,19.80
2018-05-11T16:24:46.197Z,19.80
2018-05-11T16:27:13.623Z,19.80
2018-05-11T16:29:40.257Z,19.80
2018-05-11T16:32:07.297Z,19.80
2018-05-11T16:34:34.334Z,19.80
2018-05-11T16:37:00.977Z,19.80
2018-05-11T16:39:28.019Z,19.80
2018-05-11T16:41:54.637Z,19.80
2018-05-11T16:44:21.258Z,19.80
2018-05-11T16:46:48.298Z,19.80
2018-05-11T16:49:15.330Z,19.90
2018-05-11T16:51:42.363Z,19.90
2018-05-11T16:54:09.381Z,19.80
2018-05-11T16:56:36.020Z,19.80
2018-05-11T16:59:03.425Z,19.90
2018-05-11T17:01:30.065Z,19.90
2018-05-11T17:03:56.705Z,19.80
2018-05-11T17:06:24.110Z,19.80
2018-05-11T17:08:50.723Z,19.90
2018-05-11T17:11:17.403Z,19.80
2018-05-11T17:13:44.429Z,19.90
2018-05-11T17:16:11.071Z,19.80
2018-05-11T17:18:37.725Z,19.90
2018-05-11T17:26:13.643Z,19.90
2018-05-11T17:28:40.261Z,19.90
2018-05-11T17:31:06.912Z,19.90
2018-05-11T17:33:33.584Z,19.90
2018-05-11T17:36:01.911Z,19.80
2018-05-11T17:38:29.311Z,19.80
2018-05-11T17:43:24.225Z,19.80
2018-05-11T17:45:51.980Z,19.80
2018-05-11T17:48:19.391Z,19.80
2018-05-11T17:50:46.025Z,19.80
2018-05-11T17:53:12.656Z,19.80
2018-05-11T17:55:39.674Z,19.80
2018-05-11T17:58:06.303Z,19.80
2018-05-11T18:00:35.614Z,19.80
2018-05-11T18:04:44.962Z,19.80
2018-05-11T18:07:11.969Z,19.80
2018-05-11T18:09:39.371Z,19.80
2018-05-11T18:12:06.029Z,19.80
2018-05-11T18:14:33.094Z,19.80
2018-05-11T18:17:00.133Z,19.80
2018-05-11T18:19:27.161Z,19.80
2018-05-11T18:21:54.176Z,19.80
2018-05-11T18:24:20.811Z,19.80
2018-05-11T18:26:48.197Z,19.80
2018-05-11T18:29:16.341Z,19.80
2018-05-11T18:31:43.629Z,19.80
2018-05-11T18:34:10.267Z,19.70
2018-05-11T18:36:36.892Z,19.70
2018-05-11T18:39:03.986Z,19.70
2018-05-11T18:41:31.003Z,19.80
2018-05-11T18:43:57.618Z,19.70
2018-05-11T18:46:24.652Z,19.70
2018-05-11T18:48:51.675Z,19.70
2018-05-11T18:51:18.335Z,19.70
2018-05-11T18:53:45.270Z,19.70
2018-05-11T18:56:12.027Z,19.70
2018-05-11T18:58:40.148Z,19.70
2018-05-11T19:01:07.180Z,19.70
2018-05-11T19:03:33.806Z,19.70
2018-05-11T19:06:00.469Z,19.70
2018-05-11T19:08:27.482Z,19.70
2018-05-11T19:10:54.519Z,19.70
2018-05-11T19:13:21.907Z,19.70
2018-05-11T19:15:50.044Z,19.70
2018-05-11T19:18:17.058Z,19.70
2018-05-11T19:20:44.459Z,19.70
2018-05-11T19:23:11.514Z,19.70
2018-05-11T19:25:38.529Z,19.70
2018-05-11T19:28:05.226Z,19.70
2018-05-11T19:30:31.795Z,19.70
2018-05-11T19:32:58.437Z,19.60
2018-05-11T19:35:26.391Z,19.70
2018-05-11T19:37:53.435Z,19.60
2018-05-11T19:40:20.041Z,19.70
2018-05-11T19:42:47.079Z,19.60
2018-05-11T19:45:14.131Z,19.60
2018-05-11T19:47:41.524Z,19.70
2018-05-11T19:50:08.538Z,19.60
2018-05-11T19:52:35.576Z,19.60
2018-05-11T19:55:02.963Z,19.60
2018-05-11T19:57:29.609Z,19.60
2018-05-11T19:59:56.234Z,19.60
2018-05-11T20:02:22.905Z,19.60
2018-05-11T20:04:49.532Z,19.60
2018-05-11T20:07:16.145Z,19.60
2018-05-11T20:09:43.183Z,19.60
2018-05-11T20:12:09.877Z,19.60
2018-05-11T20:14:36.869Z,19.60
2018-05-11T20:17:03.566Z,19.60
2018-05-11T20:19:30.205Z,19.60
2018-05-11T20:21:58.328Z,19.60
2018-05-11T20:24:25.728Z,19.60
2018-05-11T20:26:52.355Z,19.60
2018-05-11T20:29:19.381Z,19.60
2018-05-11T20:34:14.319Z,19.60
2018-05-11T20:36:40.963Z,19.60
2018-05-11T20:39:07.608Z,19.60
2018-05-11T20:41:34.290Z,19.60
2018-05-11T20:44:00.871Z,19.60
2018-05-11T20:46:27.879Z,19.60
2018-05-11T20:48:54.497Z,19.60
2018-05-11T20:51:21.531Z,19.50
2018-05-11T20:53:48.140Z,19.60
2018-05-11T20:56:15.536Z,19.60
2018-05-11T20:58:43.389Z,19.50
2018-05-11T21:01:09.962Z,19.50
2018-05-11T21:03:36.976Z,19.50
2018-05-11T21:06:05.116Z,19.50
2018-05-11T21:08:31.729Z,19.50
2018-05-11T21:10:59.125Z,19.50
2018-05-11T21:13:25.763Z,19.50
2018-05-11T21:15:52.399Z,19.50
2018-05-11T21:18:19.416Z,19.50
2018-05-11T21:20:46.047Z,19.50
2018-05-11T21:23:12.721Z,19.50
2018-05-11T21:25:39.728Z,19.50
2018-05-11T21:28:07.107Z,19.50
2018-05-11T21:30:33.717Z,19.50
2018-05-11T21:33:00.378Z,19.50
2018-05-11T21:35:27.599Z,19.50
2018-05-11T21:37:54.237Z,19.50
2018-05-11T21:40:20.857Z,19.50
2018-05-11T21:42:47.883Z,19.50
2018-05-11T21:45:14.500Z,19.50
2018-05-11T21:47:41.138Z,19.50
2018-05-11T21:50:07.754Z,19.50
2018-05-11T21:52:34.383Z,19.40
2018-05-11T21:55:01.471Z,19.40
2018-05-11T21:57:28.879Z,19.50
2018-05-11T21:59:55.516Z,19.50
2018-05-11T22:02:22.539Z,19.40
2018-05-11T22:04:49.926Z,19.40
2018-05-11T22:07:16.947Z,19.40
2018-05-11T22:09:43.980Z,19.40
2018-05-11T22:12:10.615Z,19.40
2018-05-11T22:17:16.566Z,19.40
2018-05-11T22:19:43.194Z,19.40
2018-05-11T22:22:10.201Z,19.40
2018-05-11T22:24:37.604Z,19.40
2018-05-11T22:27:04.617Z,19.40
2018-05-11T22:29:31.253Z,19.40
2018-05-11T22:31:58.268Z,19.40
2018-05-11T22:34:24.895Z,19.40
2018-05-11T22:36:51.554Z,19.40
2018-05-11T22:39:19.404Z,19.40
2018-05-11T22:41:46.413Z,19.40
2018-05-11T22:44:13.442Z,19.40
2018-05-11T22:46:40.464Z,19.40
2018-05-11T22:49:07.100Z,19.40
2018-05-11T22:51:33.755Z,19.40
2018-05-11T22:54:00.468Z,19.40
2018-05-11T22:56:27.108Z,19.40
2018-05-11T22:58:54.876Z,19.40
2018-05-11T23:01:21.925Z,19.40
2018-05-11T23:03:48.547Z,19.40
2018-05-11T23:06:15.200Z,19.40
2018-05-11T23:08:41.840Z,19.40
2018-05-11T23:11:08.476Z,19.40
2018-05-11T23:13:35.107Z,19.40
2018-05-11T23:16:02.160Z,19.30
2018-05-11T23:18:29.169Z,19.40
2018-05-11T23:20:55.809Z,19.30
2018-05-11T23:23:22.433Z,19.40
2018-05-11T23:25:51.257Z,19.30
2018-05-11T23:28:17.869Z,19.30
2018-05-11T23:30:44.518Z,19.30
2018-05-11T23:33:11.133Z,19.30
2018-05-11T23:35:37.763Z,19.30
2018-05-11T23:38:04.796Z,19.30
2018-05-11T23:42:59.718Z,19.30
2018-05-11T23:45:26.723Z,19.30
2018-05-11T23:47:53.367Z,19.30
2018-05-11T23:50:19.989Z,19.30
2018-05-11T23:52:46.630Z,19.30
2018-05-11T23:55:13.641Z,19.30
2018-05-11T23:57:40.310Z,19.30
